sensor_id;sensor_type;location;lat;lon;timestamp;P1;durP1;ratioP1;P2;durP2;ratioP2
11319;SDS011;5715;48.234;14.320;2023-04-25T00:01:29;4.80;;;2.97;;
11319;SDS011;5715;48.234;14.320;2023-04-25T00:04:17;3.10;;;2.90;;
11319;SDS011;5715;48.234;14.320;2023-04-25T00:07:05;12.03;;;2.90;;
11319;SDS011;5715;48.234;14.320;2023-04-25T00:09:52;3.03;;;2.80;;
11319;SDS011;5715;48.234;14.320;2023-04-25T00:12:40;2.70;;;2.50;;
11319;SDS011;5715;48.234;14.320;2023-04-25T00:15:28;2.80;;;2.60;;
11319;SDS011;5715;48.234;14.320;2023-04-25T00:18:17;2.53;;;2.33;;
11319;SDS011;5715;48.234;14.320;2023-04-25T00:21:05;2.73;;;2.33;;
11319;SDS011;5715;48.234;14.320;2023-04-25T00:23:53;2.87;;;2.67;;
11319;SDS011;5715;48.234;14.320;2023-04-25T00:26:41;2.10;;;2.00;;
11319;SDS011;5715;48.234;14.320;2023-04-25T00:29:29;2.37;;;2.17;;
11319;SDS011;5715;48.234;14.320;2023-04-25T00:32:16;2.77;;;2.57;;
11319;SDS011;5715;48.234;14.320;2023-04-25T00:35:04;4.43;;;2.77;;
11319;SDS011;5715;48.234;14.320;2023-04-25T00:37:52;2.23;;;2.07;;
11319;SDS011;5715;48.234;14.320;2023-04-25T00:40:41;2.40;;;2.30;;
11319;SDS011;5715;48.234;14.320;2023-04-25T00:43:30;2.57;;;2.37;;
11319;SDS011;5715;48.234;14.320;2023-04-25T00:46:19;3.80;;;2.00;;
11319;SDS011;5715;48.234;14.320;2023-04-25T00:49:07;2.50;;;2.30;;
11319;SDS011;5715;48.234;14.320;2023-04-25T00:51:54;3.40;;;3.10;;
11319;SDS011;5715;48.234;14.320;2023-04-25T00:54:43;2.13;;;2.03;;
11319;SDS011;5715;48.234;14.320;2023-04-25T00:57:31;2.40;;;2.20;;
11319;SDS011;5715;48.234;14.320;2023-04-25T01:00:18;2.10;;;1.90;;
11319;SDS011;5715;48.234;14.320;2023-04-25T01:03:07;2.20;;;2.00;;
11319;SDS011;5715;48.234;14.320;2023-04-25T01:05:55;4.20;;;2.40;;
11319;SDS011;5715;48.234;14.320;2023-04-25T01:08:43;3.43;;;2.53;;
11319;SDS011;5715;48.234;14.320;2023-04-25T01:11:31;3.00;;;2.00;;
11319;SDS011;5715;48.234;14.320;2023-04-25T01:14:18;2.00;;;1.87;;
11319;SDS011;5715;48.234;14.320;2023-04-25T01:17:06;2.37;;;2.17;;
11319;SDS011;5715;48.234;14.320;2023-04-25T01:19:55;2.37;;;2.10;;
11319;SDS011;5715;48.234;14.320;2023-04-25T01:22:43;2.70;;;2.17;;
11319;SDS011;5715;48.234;14.320;2023-04-25T01:25:30;2.53;;;2.30;;
11319;SDS011;5715;48.234;14.320;2023-04-25T01:28:19;1.90;;;1.80;;
11319;SDS011;5715;48.234;14.320;2023-04-25T01:31:07;2.07;;;1.93;;
11319;SDS011;5715;48.234;14.320;2023-04-25T01:33:55;1.70;;;1.60;;
11319;SDS011;5715;48.234;14.320;2023-04-25T01:36:43;2.10;;;2.00;;
11319;SDS011;5715;48.234;14.320;2023-04-25T01:39:31;2.40;;;2.30;;
11319;SDS011;5715;48.234;14.320;2023-04-25T01:42:19;2.23;;;2.10;;
11319;SDS011;5715;48.234;14.320;2023-04-25T01:45:07;2.17;;;2.07;;
11319;SDS011;5715;48.234;14.320;2023-04-25T01:47:57;2.37;;;2.20;;
11319;SDS011;5715;48.234;14.320;2023-04-25T01:50:46;8.83;;;2.43;;
11319;SDS011;5715;48.234;14.320;2023-04-25T01:53:33;2.70;;;2.37;;
11319;SDS011;5715;48.234;14.320;2023-04-25T01:56:21;2.80;;;2.50;;
11319;SDS011;5715;48.234;14.320;2023-04-25T01:59:08;2.20;;;2.10;;
11319;SDS011;5715;48.234;14.320;2023-04-25T02:01:56;3.27;;;2.97;;
11319;SDS011;5715;48.234;14.320;2023-04-25T02:04:44;3.17;;;2.87;;
11319;SDS011;5715;48.234;14.320;2023-04-25T02:07:32;2.77;;;2.57;;
11319;SDS011;5715;48.234;14.320;2023-04-25T02:10:19;2.87;;;2.63;;
11319;SDS011;5715;48.234;14.320;2023-04-25T02:13:07;5.53;;;3.63;;
11319;SDS011;5715;48.234;14.320;2023-04-25T02:15:54;3.07;;;2.87;;
11319;SDS011;5715;48.234;14.320;2023-04-25T02:18:42;2.70;;;2.60;;
11319;SDS011;5715;48.234;14.320;2023-04-25T02:21:31;2.90;;;2.70;;
11319;SDS011;5715;48.234;14.320;2023-04-25T02:24:19;3.40;;;3.20;;
11319;SDS011;5715;48.234;14.320;2023-04-25T02:27:07;3.00;;;2.73;;
11319;SDS011;5715;48.234;14.320;2023-04-25T02:29:54;2.90;;;2.67;;
11319;SDS011;5715;48.234;14.320;2023-04-25T02:32:42;2.93;;;2.83;;
11319;SDS011;5715;48.234;14.320;2023-04-25T02:35:30;3.07;;;2.80;;
11319;SDS011;5715;48.234;14.320;2023-04-25T02:38:17;2.77;;;2.57;;
11319;SDS011;5715;48.234;14.320;2023-04-25T02:41:05;2.63;;;2.53;;
11319;SDS011;5715;48.234;14.320;2023-04-25T02:43:52;2.97;;;2.77;;
11319;SDS011;5715;48.234;14.320;2023-04-25T02:46:40;2.70;;;2.60;;
11319;SDS011;5715;48.234;14.320;2023-04-25T02:49:27;11.30;;;2.90;;
11319;SDS011;5715;48.234;14.320;2023-04-25T02:52:15;2.57;;;2.43;;
11319;SDS011;5715;48.234;14.320;2023-04-25T02:55:02;2.33;;;2.23;;
11319;SDS011;5715;48.234;14.320;2023-04-25T02:57:50;3.07;;;2.87;;
11319;SDS011;5715;48.234;14.320;2023-04-25T03:00:38;2.30;;;2.20;;
11319;SDS011;5715;48.234;14.320;2023-04-25T03:03:25;3.07;;;2.40;;
11319;SDS011;5715;48.234;14.320;2023-04-25T03:06:13;2.40;;;2.30;;
11319;SDS011;5715;48.234;14.320;2023-04-25T03:09:02;2.60;;;2.40;;
11319;SDS011;5715;48.234;14.320;2023-04-25T03:11:50;3.97;;;2.90;;
11319;SDS011;5715;48.234;14.320;2023-04-25T03:14:38;10.57;;;3.37;;
11319;SDS011;5715;48.234;14.320;2023-04-25T03:17:25;2.13;;;2.03;;
11319;SDS011;5715;48.234;14.320;2023-04-25T03:20:13;13.93;;;3.03;;
11319;SDS011;5715;48.234;14.320;2023-04-25T03:23:00;2.43;;;2.33;;
11319;SDS011;5715;48.234;14.320;2023-04-25T03:25:47;3.13;;;2.80;;
11319;SDS011;5715;48.234;14.320;2023-04-25T03:28:35;3.57;;;2.80;;
11319;SDS011;5715;48.234;14.320;2023-04-25T03:31:22;2.53;;;2.43;;
11319;SDS011;5715;48.234;14.320;2023-04-25T03:34:10;2.70;;;2.60;;
11319;SDS011;5715;48.234;14.320;2023-04-25T03:36:57;3.67;;;3.40;;
11319;SDS011;5715;48.234;14.320;2023-04-25T03:39:46;3.27;;;3.07;;
11319;SDS011;5715;48.234;14.320;2023-04-25T03:42:34;8.03;;;4.23;;
11319;SDS011;5715;48.234;14.320;2023-04-25T03:45:21;3.50;;;3.30;;
11319;SDS011;5715;48.234;14.320;2023-04-25T03:48:09;3.30;;;3.10;;
11319;SDS011;5715;48.234;14.320;2023-04-25T03:50:58;4.13;;;3.73;;
11319;SDS011;5715;48.234;14.320;2023-04-25T03:53:45;3.77;;;3.57;;
11319;SDS011;5715;48.234;14.320;2023-04-25T03:56:35;4.10;;;3.80;;
11319;SDS011;5715;48.234;14.320;2023-04-25T03:59:22;3.83;;;3.60;;
11319;SDS011;5715;48.234;14.320;2023-04-25T04:02:11;3.90;;;3.60;;
11319;SDS011;5715;48.234;14.320;2023-04-25T04:04:59;3.63;;;3.37;;
11319;SDS011;5715;48.234;14.320;2023-04-25T04:07:47;2.70;;;2.50;;
11319;SDS011;5715;48.234;14.320;2023-04-25T04:10:34;3.97;;;3.13;;
11319;SDS011;5715;48.234;14.320;2023-04-25T04:13:22;3.47;;;3.17;;
11319;SDS011;5715;48.234;14.320;2023-04-25T04:16:09;2.87;;;2.67;;
11319;SDS011;5715;48.234;14.320;2023-04-25T04:18:57;5.20;;;3.00;;
11319;SDS011;5715;48.234;14.320;2023-04-25T04:21:45;3.37;;;3.07;;
11319;SDS011;5715;48.234;14.320;2023-04-25T04:24:32;3.10;;;2.80;;
11319;SDS011;5715;48.234;14.320;2023-04-25T04:27:21;3.30;;;3.00;;
11319;SDS011;5715;48.234;14.320;2023-04-25T04:30:09;2.57;;;2.37;;
11319;SDS011;5715;48.234;14.320;2023-04-25T04:32:57;2.40;;;2.20;;
11319;SDS011;5715;48.234;14.320;2023-04-25T04:35:45;3.23;;;2.93;;
11319;SDS011;5715;48.234;14.320;2023-04-25T04:38:33;6.50;;;2.80;;
11319;SDS011;5715;48.234;14.320;2023-04-25T04:41:21;3.23;;;3.03;;
11319;SDS011;5715;48.234;14.320;2023-04-25T04:44:09;3.20;;;2.87;;
11319;SDS011;5715;48.234;14.320;2023-04-25T04:46:57;2.90;;;2.70;;
11319;SDS011;5715;48.234;14.320;2023-04-25T04:49:45;17.70;;;2.70;;
11319;SDS011;5715;48.234;14.320;2023-04-25T04:52:33;7.37;;;2.23;;
11319;SDS011;5715;48.234;14.320;2023-04-25T04:55:21;3.67;;;2.67;;
11319;SDS011;5715;48.234;14.320;2023-04-25T04:58:09;3.10;;;2.67;;
11319;SDS011;5715;48.234;14.320;2023-04-25T05:00:56;5.23;;;3.10;;
11319;SDS011;5715;48.234;14.320;2023-04-25T05:03:44;2.53;;;2.33;;
11319;SDS011;5715;48.234;14.320;2023-04-25T05:06:31;2.53;;;2.30;;
11319;SDS011;5715;48.234;14.320;2023-04-25T05:09:19;2.97;;;2.17;;
11319;SDS011;5715;48.234;14.320;2023-04-25T05:12:06;2.57;;;2.37;;
11319;SDS011;5715;48.234;14.320;2023-04-25T05:14:54;3.03;;;2.53;;
11319;SDS011;5715;48.234;14.320;2023-04-25T05:17:41;2.80;;;2.57;;
11319;SDS011;5715;48.234;14.320;2023-04-25T05:20:29;2.67;;;2.40;;
11319;SDS011;5715;48.234;14.320;2023-04-25T05:23:16;3.17;;;1.93;;
11319;SDS011;5715;48.234;14.320;2023-04-25T05:26:04;2.07;;;1.87;;
11319;SDS011;5715;48.234;14.320;2023-04-25T05:28:52;5.77;;;2.60;;
11319;SDS011;5715;48.234;14.320;2023-04-25T05:31:39;3.08;;;2.08;;
11319;SDS011;5715;48.234;14.320;2023-04-25T05:34:27;3.28;;;2.15;;
11319;SDS011;5715;48.234;14.320;2023-04-25T05:37:15;2.47;;;2.15;;
11319;SDS011;5715;48.234;14.320;2023-04-25T05:40:02;4.50;;;2.25;;
11319;SDS011;5715;48.234;14.320;2023-04-25T05:42:53;4.50;;;2.05;;
11319;SDS011;5715;48.234;14.320;2023-04-25T05:45:41;2.30;;;2.10;;
11319;SDS011;5715;48.234;14.320;2023-04-25T05:48:28;2.17;;;1.98;;
11319;SDS011;5715;48.234;14.320;2023-04-25T05:51:16;3.17;;;1.77;;
11319;SDS011;5715;48.234;14.320;2023-04-25T05:54:05;15.57;;;2.60;;
11319;SDS011;5715;48.234;14.320;2023-04-25T05:56:52;4.97;;;2.07;;
11319;SDS011;5715;48.234;14.320;2023-04-25T05:59:40;3.27;;;1.80;;
11319;SDS011;5715;48.234;14.320;2023-04-25T06:02:27;2.03;;;1.83;;
11319;SDS011;5715;48.234;14.320;2023-04-25T06:05:15;2.93;;;1.83;;
11319;SDS011;5715;48.234;14.320;2023-04-25T06:08:03;6.63;;;2.23;;
11319;SDS011;5715;48.234;14.320;2023-04-25T06:10:50;2.27;;;2.07;;
11319;SDS011;5715;48.234;14.320;2023-04-25T06:13:38;2.20;;;2.00;;
11319;SDS011;5715;48.234;14.320;2023-04-25T06:16:25;2.30;;;2.10;;
11319;SDS011;5715;48.234;14.320;2023-04-25T06:19:13;7.07;;;2.30;;
11319;SDS011;5715;48.234;14.320;2023-04-25T06:22:01;2.00;;;1.67;;
11319;SDS011;5715;48.234;14.320;2023-04-25T06:24:48;2.63;;;2.00;;
11319;SDS011;5715;48.234;14.320;2023-04-25T06:27:36;3.30;;;2.10;;
11319;SDS011;5715;48.234;14.320;2023-04-25T06:30:24;2.50;;;2.30;;
11319;SDS011;5715;48.234;14.320;2023-04-25T06:33:12;2.40;;;2.17;;
11319;SDS011;5715;48.234;14.320;2023-04-25T06:36:00;2.03;;;1.90;;
11319;SDS011;5715;48.234;14.320;2023-04-25T06:38:47;2.60;;;2.00;;
11319;SDS011;5715;48.234;14.320;2023-04-25T06:41:35;1.90;;;1.70;;
11319;SDS011;5715;48.234;14.320;2023-04-25T06:44:23;2.00;;;1.80;;
11319;SDS011;5715;48.234;14.320;2023-04-25T06:47:12;1.50;;;1.40;;
11319;SDS011;5715;48.234;14.320;2023-04-25T06:50:01;2.17;;;1.97;;
11319;SDS011;5715;48.234;14.320;2023-04-25T06:52:48;1.70;;;1.60;;
11319;SDS011;5715;48.234;14.320;2023-04-25T06:55:36;2.03;;;1.93;;
11319;SDS011;5715;48.234;14.320;2023-04-25T06:58:23;1.93;;;1.80;;
11319;SDS011;5715;48.234;14.320;2023-04-25T07:01:13;2.10;;;1.63;;
11319;SDS011;5715;48.234;14.320;2023-04-25T07:04:01;3.43;;;2.67;;
11319;SDS011;5715;48.234;14.320;2023-04-25T07:06:48;2.60;;;2.40;;
11319;SDS011;5715;48.234;14.320;2023-04-25T07:09:36;2.17;;;2.03;;
11319;SDS011;5715;48.234;14.320;2023-04-25T07:12:24;2.10;;;2.00;;
11319;SDS011;5715;48.234;14.320;2023-04-25T07:15:13;2.47;;;2.23;;
11319;SDS011;5715;48.234;14.320;2023-04-25T07:18:00;2.40;;;2.13;;
11319;SDS011;5715;48.234;14.320;2023-04-25T07:20:48;3.27;;;2.27;;
11319;SDS011;5715;48.234;14.320;2023-04-25T07:23:36;2.20;;;2.00;;
11319;SDS011;5715;48.234;14.320;2023-04-25T07:26:24;2.00;;;1.90;;
11319;SDS011;5715;48.234;14.320;2023-04-25T07:29:11;2.33;;;2.13;;
11319;SDS011;5715;48.234;14.320;2023-04-25T07:32:00;2.67;;;2.20;;
11319;SDS011;5715;48.234;14.320;2023-04-25T07:34:47;2.00;;;1.80;;
11319;SDS011;5715;48.234;14.320;2023-04-25T07:37:35;2.50;;;2.30;;
11319;SDS011;5715;48.234;14.320;2023-04-25T07:40:23;2.58;;;1.92;;
11319;SDS011;5715;48.234;14.320;2023-04-25T07:43:11;2.10;;;1.90;;
11319;SDS011;5715;48.234;14.320;2023-04-25T07:46:01;3.83;;;1.97;;
11319;SDS011;5715;48.234;14.320;2023-04-25T07:48:49;2.58;;;2.15;;
11319;SDS011;5715;48.234;14.320;2023-04-25T07:51:37;2.67;;;2.47;;
11319;SDS011;5715;48.234;14.320;2023-04-25T07:54:25;2.73;;;2.47;;
11319;SDS011;5715;48.234;14.320;2023-04-25T07:57:12;2.72;;;2.40;;
11319;SDS011;5715;48.234;14.320;2023-04-25T08:00:00;2.30;;;2.08;;
11319;SDS011;5715;48.234;14.320;2023-04-25T08:02:48;1.85;;;1.67;;
11319;SDS011;5715;48.234;14.320;2023-04-25T08:05:37;2.63;;;2.42;;
11319;SDS011;5715;48.234;14.320;2023-04-25T08:08:25;2.67;;;2.20;;
11319;SDS011;5715;48.234;14.320;2023-04-25T08:11:13;3.33;;;1.93;;
11319;SDS011;5715;48.234;14.320;2023-04-25T08:14:00;2.70;;;2.13;;
11319;SDS011;5715;48.234;14.320;2023-04-25T08:16:48;2.60;;;1.90;;
11319;SDS011;5715;48.234;14.320;2023-04-25T08:19:35;1.87;;;1.70;;
11319;SDS011;5715;48.234;14.320;2023-04-25T08:22:24;10.32;;;1.85;;
11319;SDS011;5715;48.234;14.320;2023-04-25T08:25:11;2.37;;;2.17;;
11319;SDS011;5715;48.234;14.320;2023-04-25T08:27:59;2.40;;;2.20;;
11319;SDS011;5715;48.234;14.320;2023-04-25T08:30:49;2.37;;;2.17;;
11319;SDS011;5715;48.234;14.320;2023-04-25T08:33:36;2.35;;;1.63;;
11319;SDS011;5715;48.234;14.320;2023-04-25T08:36:24;1.60;;;1.50;;
11319;SDS011;5715;48.234;14.320;2023-04-25T08:39:25;1.73;;;1.63;;
11319;SDS011;5715;48.234;14.320;2023-04-25T08:42:13;3.08;;;2.03;;
11319;SDS011;5715;48.234;14.320;2023-04-25T08:45:02;1.88;;;1.77;;
11319;SDS011;5715;48.234;14.320;2023-04-25T08:47:53;1.80;;;1.70;;
11319;SDS011;5715;48.234;14.320;2023-04-25T08:50:53;2.00;;;1.80;;
11319;SDS011;5715;48.234;14.320;2023-04-25T08:53:42;2.08;;;1.88;;
11319;SDS011;5715;48.234;14.320;2023-04-25T08:56:32;3.75;;;2.63;;
11319;SDS011;5715;48.234;14.320;2023-04-25T08:59:22;2.00;;;1.80;;
11319;SDS011;5715;48.234;14.320;2023-04-25T09:02:10;5.07;;;1.80;;
11319;SDS011;5715;48.234;14.320;2023-04-25T09:05:02;2.17;;;1.98;;
11319;SDS011;5715;48.234;14.320;2023-04-25T09:07:50;2.50;;;2.30;;
11319;SDS011;5715;48.234;14.320;2023-04-25T09:10:38;2.58;;;1.60;;
11319;SDS011;5715;48.234;14.320;2023-04-25T09:13:27;1.95;;;1.80;;
11319;SDS011;5715;48.234;14.320;2023-04-25T09:16:15;1.95;;;1.75;;
11319;SDS011;5715;48.234;14.320;2023-04-25T09:19:05;3.07;;;2.30;;
11319;SDS011;5715;48.234;14.320;2023-04-25T09:21:56;2.40;;;2.20;;
11319;SDS011;5715;48.234;14.320;2023-04-25T09:24:46;4.25;;;2.10;;
11319;SDS011;5715;48.234;14.320;2023-04-25T09:27:35;2.13;;;1.98;;
11319;SDS011;5715;48.234;14.320;2023-04-25T09:30:32;9.32;;;3.22;;
11319;SDS011;5715;48.234;14.320;2023-04-25T09:33:30;2.90;;;2.60;;
11319;SDS011;5715;48.234;14.320;2023-04-25T09:36:20;2.15;;;1.95;;
11319;SDS011;5715;48.234;14.320;2023-04-25T09:39:14;2.35;;;2.15;;
11319;SDS011;5715;48.234;14.320;2023-04-25T09:42:02;4.20;;;2.55;;
11319;SDS011;5715;48.234;14.320;2023-04-25T09:44:52;2.22;;;2.03;;
11319;SDS011;5715;48.234;14.320;2023-04-25T09:47:42;2.20;;;2.00;;
11319;SDS011;5715;48.234;14.320;2023-04-25T09:50:30;13.52;;;5.85;;
11319;SDS011;5715;48.234;14.320;2023-04-25T09:53:18;4.47;;;2.20;;
11319;SDS011;5715;48.234;14.320;2023-04-25T09:56:06;2.42;;;2.22;;
11319;SDS011;5715;48.234;14.320;2023-04-25T09:58:57;2.10;;;1.90;;
11319;SDS011;5715;48.234;14.320;2023-04-25T10:01:45;2.30;;;2.10;;
11319;SDS011;5715;48.234;14.320;2023-04-25T10:04:35;5.65;;;2.08;;
11319;SDS011;5715;48.234;14.320;2023-04-25T10:07:25;2.10;;;1.90;;
11319;SDS011;5715;48.234;14.320;2023-04-25T10:10:17;1.88;;;1.77;;
11319;SDS011;5715;48.234;14.320;2023-04-25T10:13:06;1.95;;;1.75;;
11319;SDS011;5715;48.234;14.320;2023-04-25T10:15:55;2.67;;;2.05;;
11319;SDS011;5715;48.234;14.320;2023-04-25T10:18:50;2.72;;;1.90;;
11319;SDS011;5715;48.234;14.320;2023-04-25T10:21:50;1.75;;;1.65;;
11319;SDS011;5715;48.234;14.320;2023-04-25T10:24:47;1.92;;;1.70;;
11319;SDS011;5715;48.234;14.320;2023-04-25T10:27:38;6.60;;;1.92;;
11319;SDS011;5715;48.234;14.320;2023-04-25T10:30:26;2.35;;;1.45;;
11319;SDS011;5715;48.234;14.320;2023-04-25T10:33:17;2.15;;;1.95;;
11319;SDS011;5715;48.234;14.320;2023-04-25T10:36:17;1.70;;;1.60;;
11319;SDS011;5715;48.234;14.320;2023-04-25T10:39:08;1.95;;;1.80;;
11319;SDS011;5715;48.234;14.320;2023-04-25T10:41:57;2.10;;;1.77;;
11319;SDS011;5715;48.234;14.320;2023-04-25T10:45:00;1.50;;;1.40;;
11319;SDS011;5715;48.234;14.320;2023-04-25T10:47:51;1.87;;;1.77;;
11319;SDS011;5715;48.234;14.320;2023-04-25T10:50:39;1.70;;;1.37;;
11319;SDS011;5715;48.234;14.320;2023-04-25T10:53:30;7.37;;;1.20;;
11319;SDS011;5715;48.234;14.320;2023-04-25T10:56:20;8.83;;;1.20;;
11319;SDS011;5715;48.234;14.320;2023-04-25T10:59:17;1.40;;;1.30;;
11319;SDS011;5715;48.234;14.320;2023-04-25T11:02:11;1.23;;;1.13;;
11319;SDS011;5715;48.234;14.320;2023-04-25T11:05:00;1.63;;;1.47;;
11319;SDS011;5715;48.234;14.320;2023-04-25T11:07:50;1.17;;;1.03;;
11319;SDS011;5715;48.234;14.320;2023-04-25T11:10:46;1.77;;;1.03;;
11319;SDS011;5715;48.234;14.320;2023-04-25T11:13:37;3.37;;;1.50;;
11319;SDS011;5715;48.234;14.320;2023-04-25T11:16:24;3.17;;;1.40;;
11319;SDS011;5715;48.234;14.320;2023-04-25T11:19:14;1.77;;;1.67;;
11319;SDS011;5715;48.234;14.320;2023-04-25T11:22:02;1.63;;;1.53;;
11319;SDS011;5715;48.234;14.320;2023-04-25T11:24:50;3.17;;;1.50;;
11319;SDS011;5715;48.234;14.320;2023-04-25T11:27:39;1.10;;;1.10;;
11319;SDS011;5715;48.234;14.320;2023-04-25T11:30:38;1.40;;;1.30;;
11319;SDS011;5715;48.234;14.320;2023-04-25T11:33:34;1.43;;;1.33;;
11319;SDS011;5715;48.234;14.320;2023-04-25T11:36:23;2.10;;;2.00;;
11319;SDS011;5715;48.234;14.320;2023-04-25T11:39:12;3.70;;;1.77;;
11319;SDS011;5715;48.234;14.320;2023-04-25T11:42:01;2.10;;;1.40;;
11319;SDS011;5715;48.234;14.320;2023-04-25T11:44:59;1.53;;;1.43;;
11319;SDS011;5715;48.234;14.320;2023-04-25T11:47:47;1.37;;;1.27;;
11319;SDS011;5715;48.234;14.320;2023-04-25T11:50:36;3.23;;;2.00;;
11319;SDS011;5715;48.234;14.320;2023-04-25T11:53:26;1.37;;;1.20;;
11319;SDS011;5715;48.234;14.320;2023-04-25T11:56:14;1.90;;;1.70;;
11319;SDS011;5715;48.234;14.320;2023-04-25T11:59:03;6.33;;;2.03;;
11319;SDS011;5715;48.234;14.320;2023-04-25T12:01:53;4.93;;;1.70;;
11319;SDS011;5715;48.234;14.320;2023-04-25T12:04:41;1.13;;;1.03;;
11319;SDS011;5715;48.234;14.320;2023-04-25T12:07:29;4.73;;;1.40;;
11319;SDS011;5715;48.234;14.320;2023-04-25T12:10:17;1.13;;;1.13;;
11319;SDS011;5715;48.234;14.320;2023-04-25T12:13:24;1.83;;;1.67;;
11319;SDS011;5715;48.234;14.320;2023-04-25T12:16:14;1.13;;;1.07;;
11319;SDS011;5715;48.234;14.320;2023-04-25T12:19:02;1.70;;;1.60;;
11319;SDS011;5715;48.234;14.320;2023-04-25T12:21:50;2.43;;;2.23;;
11319;SDS011;5715;48.234;14.320;2023-04-25T12:24:44;1.88;;;1.77;;
11319;SDS011;5715;48.234;14.320;2023-04-25T12:27:32;3.03;;;1.73;;
11319;SDS011;5715;48.234;14.320;2023-04-25T12:30:20;2.95;;;1.88;;
11319;SDS011;5715;48.234;14.320;2023-04-25T12:33:08;3.38;;;1.70;;
11319;SDS011;5715;48.234;14.320;2023-04-25T12:35:55;1.70;;;1.58;;
11319;SDS011;5715;48.234;14.320;2023-04-25T12:38:45;1.30;;;1.20;;
11319;SDS011;5715;48.234;14.320;2023-04-25T12:41:32;1.95;;;1.77;;
11319;SDS011;5715;48.234;14.320;2023-04-25T12:44:20;2.88;;;2.08;;
11319;SDS011;5715;48.234;14.320;2023-04-25T12:47:08;1.80;;;1.70;;
11319;SDS011;5715;48.234;14.320;2023-04-25T12:49:57;1.95;;;1.75;;
11319;SDS011;5715;48.234;14.320;2023-04-25T12:52:44;1.30;;;1.30;;
11319;SDS011;5715;48.234;14.320;2023-04-25T12:55:32;0.90;;;0.90;;
11319;SDS011;5715;48.234;14.320;2023-04-25T12:58:20;1.52;;;1.42;;
11319;SDS011;5715;48.234;14.320;2023-04-25T13:01:08;0.90;;;0.90;;
11319;SDS011;5715;48.234;14.320;2023-04-25T13:03:55;0.90;;;0.90;;
11319;SDS011;5715;48.234;14.320;2023-04-25T13:06:43;1.43;;;1.33;;
11319;SDS011;5715;48.234;14.320;2023-04-25T13:09:31;1.23;;;1.23;;
11319;SDS011;5715;48.234;14.320;2023-04-25T13:12:18;2.37;;;2.27;;
11319;SDS011;5715;48.234;14.320;2023-04-25T13:15:06;1.30;;;1.30;;
11319;SDS011;5715;48.234;14.320;2023-04-25T13:17:55;1.17;;;1.17;;
11319;SDS011;5715;48.234;14.320;2023-04-25T13:20:43;4.33;;;1.63;;
11319;SDS011;5715;48.234;14.320;2023-04-25T13:23:31;1.40;;;1.30;;
11319;SDS011;5715;48.234;14.320;2023-04-25T13:26:18;1.13;;;1.13;;
11319;SDS011;5715;48.234;14.320;2023-04-25T13:29:06;1.73;;;1.30;;
11319;SDS011;5715;48.234;14.320;2023-04-25T13:31:53;0.97;;;0.93;;
11319;SDS011;5715;48.234;14.320;2023-04-25T13:34:43;1.27;;;1.17;;
11319;SDS011;5715;48.234;14.320;2023-04-25T13:37:31;1.53;;;1.40;;
11319;SDS011;5715;48.234;14.320;2023-04-25T13:40:19;1.10;;;1.10;;
11319;SDS011;5715;48.234;14.320;2023-04-25T13:43:10;1.33;;;1.23;;
11319;SDS011;5715;48.234;14.320;2023-04-25T13:45:58;1.63;;;1.53;;
11319;SDS011;5715;48.234;14.320;2023-04-25T13:48:46;2.03;;;1.83;;
11319;SDS011;5715;48.234;14.320;2023-04-25T13:51:35;2.20;;;1.80;;
11319;SDS011;5715;48.234;14.320;2023-04-25T13:54:22;1.80;;;1.70;;
11319;SDS011;5715;48.234;14.320;2023-04-25T13:57:10;1.53;;;1.43;;
11319;SDS011;5715;48.234;14.320;2023-04-25T13:59:58;1.53;;;1.43;;
11319;SDS011;5715;48.234;14.320;2023-04-25T14:02:46;1.60;;;1.50;;
11319;SDS011;5715;48.234;14.320;2023-04-25T14:05:36;1.80;;;1.60;;
11319;SDS011;5715;48.234;14.320;2023-04-25T14:08:25;1.50;;;1.40;;
11319;SDS011;5715;48.234;14.320;2023-04-25T14:11:13;2.00;;;1.50;;
11319;SDS011;5715;48.234;14.320;2023-04-25T14:14:00;1.20;;;1.10;;
11319;SDS011;5715;48.234;14.320;2023-04-25T14:16:48;1.30;;;1.10;;
11319;SDS011;5715;48.234;14.320;2023-04-25T14:19:37;1.17;;;1.07;;
11319;SDS011;5715;48.234;14.320;2023-04-25T14:22:29;0.90;;;0.90;;
11319;SDS011;5715;48.234;14.320;2023-04-25T14:25:17;1.23;;;1.13;;
11319;SDS011;5715;48.234;14.320;2023-04-25T14:28:04;1.10;;;1.00;;
11319;SDS011;5715;48.234;14.320;2023-04-25T14:30:53;1.23;;;1.05;;
11319;SDS011;5715;48.234;14.320;2023-04-25T14:33:40;1.30;;;1.20;;
11319;SDS011;5715;48.234;14.320;2023-04-25T14:36:29;1.63;;;1.53;;
11319;SDS011;5715;48.234;14.320;2023-04-25T14:39:18;2.10;;;1.77;;
11319;SDS011;5715;48.234;14.320;2023-04-25T14:42:06;1.43;;;1.33;;
11319;SDS011;5715;48.234;14.320;2023-04-25T14:44:54;1.30;;;1.20;;
11319;SDS011;5715;48.234;14.320;2023-04-25T14:47:41;1.25;;;1.15;;
11319;SDS011;5715;48.234;14.320;2023-04-25T14:50:29;2.00;;;1.50;;
11319;SDS011;5715;48.234;14.320;2023-04-25T14:53:17;8.45;;;1.88;;
11319;SDS011;5715;48.234;14.320;2023-04-25T14:56:04;1.27;;;1.17;;
11319;SDS011;5715;48.234;14.320;2023-04-25T14:58:52;1.70;;;1.60;;
11319;SDS011;5715;48.234;14.320;2023-04-25T15:01:39;1.30;;;1.20;;
11319;SDS011;5715;48.234;14.320;2023-04-25T15:04:27;1.30;;;1.20;;
11319;SDS011;5715;48.234;14.320;2023-04-25T15:07:15;1.60;;;1.50;;
11319;SDS011;5715;48.234;14.320;2023-04-25T15:10:04;1.60;;;1.40;;
11319;SDS011;5715;48.234;14.320;2023-04-25T15:12:57;1.35;;;1.25;;
11319;SDS011;5715;48.234;14.320;2023-04-25T15:15:45;1.70;;;1.60;;
11319;SDS011;5715;48.234;14.320;2023-04-25T15:18:37;1.40;;;1.30;;
11319;SDS011;5715;48.234;14.320;2023-04-25T15:21:25;3.10;;;1.52;;
11319;SDS011;5715;48.234;14.320;2023-04-25T15:24:13;1.77;;;1.67;;
11319;SDS011;5715;48.234;14.320;2023-04-25T15:27:01;1.60;;;1.50;;
11319;SDS011;5715;48.234;14.320;2023-04-25T15:29:51;1.60;;;1.50;;
11319;SDS011;5715;48.234;14.320;2023-04-25T15:32:39;1.50;;;1.40;;
11319;SDS011;5715;48.234;14.320;2023-04-25T15:35:27;1.52;;;1.40;;
11319;SDS011;5715;48.234;14.320;2023-04-25T15:38:14;1.53;;;1.43;;
11319;SDS011;5715;48.234;14.320;2023-04-25T15:41:02;1.30;;;1.20;;
11319;SDS011;5715;48.234;14.320;2023-04-25T15:43:52;1.40;;;1.27;;
11319;SDS011;5715;48.234;14.320;2023-04-25T15:46:40;1.93;;;1.70;;
11319;SDS011;5715;48.234;14.320;2023-04-25T15:49:29;1.40;;;1.30;;
11319;SDS011;5715;48.234;14.320;2023-04-25T15:52:17;1.60;;;1.50;;
11319;SDS011;5715;48.234;14.320;2023-04-25T15:55:07;1.47;;;1.37;;
11319;SDS011;5715;48.234;14.320;2023-04-25T15:57:56;1.10;;;1.00;;
11319;SDS011;5715;48.234;14.320;2023-04-25T16:00:44;1.10;;;1.00;;
11319;SDS011;5715;48.234;14.320;2023-04-25T16:03:34;0.97;;;0.93;;
11319;SDS011;5715;48.234;14.320;2023-04-25T16:06:23;1.50;;;1.40;;
11319;SDS011;5715;48.234;14.320;2023-04-25T16:09:12;1.23;;;1.03;;
11319;SDS011;5715;48.234;14.320;2023-04-25T16:11:59;7.70;;;1.20;;
11319;SDS011;5715;48.234;14.320;2023-04-25T16:14:47;1.47;;;1.13;;
11319;SDS011;5715;48.234;14.320;2023-04-25T16:17:34;1.30;;;1.20;;
11319;SDS011;5715;48.234;14.320;2023-04-25T16:20:22;1.30;;;1.20;;
11319;SDS011;5715;48.234;14.320;2023-04-25T16:23:10;1.37;;;1.27;;
11319;SDS011;5715;48.234;14.320;2023-04-25T16:25:57;1.27;;;1.13;;
11319;SDS011;5715;48.234;14.320;2023-04-25T16:28:45;1.00;;;1.00;;
11319;SDS011;5715;48.234;14.320;2023-04-25T16:31:32;1.27;;;1.23;;
11319;SDS011;5715;48.234;14.320;2023-04-25T16:34:22;1.57;;;1.47;;
11319;SDS011;5715;48.234;14.320;2023-04-25T16:37:09;1.70;;;1.60;;
11319;SDS011;5715;48.234;14.320;2023-04-25T16:39:57;1.80;;;1.70;;
11319;SDS011;5715;48.234;14.320;2023-04-25T16:42:44;2.10;;;2.00;;
11319;SDS011;5715;48.234;14.320;2023-04-25T16:45:32;2.50;;;2.30;;
11319;SDS011;5715;48.234;14.320;2023-04-25T16:48:19;2.07;;;1.97;;
11319;SDS011;5715;48.234;14.320;2023-04-25T16:51:10;2.00;;;1.90;;
11319;SDS011;5715;48.234;14.320;2023-04-25T16:53:58;1.97;;;1.87;;
11319;SDS011;5715;48.234;14.320;2023-04-25T16:56:46;2.23;;;2.13;;